Time;durP1;ratioP1;P1;durP2;ratioP2;P2;SDS_P1;SDS_P2;PMS_P1;PMS_P2;Temp;Humidity;BMP_temperature;BMP_pressure;BME280_temperature;BME280_humidity;BME280_pressure;Samples;Min_cycle;Max_cycle;Signal;HPM_P1;HPM_P2
2023/10/06 00:02:20;;;;;;;13.77;4.78;;;;;;;11.87;100.00;102314.47;5090386;28;20452;-45
2023/10/06 00:04:51;;;;;;;13.38;4.80;;;;;;;11.82;100.00;102318.19;5091344;28;20055;-44
2023/10/06 00:07:21;;;;;;;9.73;4.90;;;;;;;11.79;100.00;102323.59;5087358;28;20059;-47
2023/10/06 00:09:49;;;;;;;11.98;4.55;;;;;;;11.78;100.00;102321.00;5089251;28;20040;-46
2023/10/06 00:12:17;;;;;;;11.48;4.82;;;;;;;11.75;100.00;102310.63;5089211;28;20071;-45
2023/10/06 00:14:48;;;;;;;12.43;5.97;;;;;;;11.71;100.00;102314.31;5086553;28;20040;-44
2023/10/06 00:17:18;;;;;;;13.35;5.55;;;;;;;11.70;100.00;102320.50;5087969;28;20118;-44
2023/10/06 00:19:51;;;;;;;14.10;5.25;;;;;;;11.67;100.00;102314.47;5090989;28;20503;-43
2023/10/06 00:22:20;;;;;;;13.95;5.43;;;;;;;11.66;100.00;102307.50;5087405;28;20036;-45
2023/10/06 00:24:50;;;;;;;10.95;5.28;;;;;;;11.67;100.00;102305.72;5087525;28;20048;-44
2023/10/06 00:27:23;;;;;;;11.30;5.25;;;;;;;11.70;100.00;102302.94;5086651;28;20113;-45
2023/10/06 00:29:54;;;;;;;14.50;5.85;;;;;;;11.67;100.00;102293.41;5087228;28;20051;-43
2023/10/06 00:32:26;;;;;;;15.32;5.60;;;;;;;11.69;100.00;102295.13;5087870;28;20109;-45
2023/10/06 00:35:07;;;;;;;11.23;5.30;;;;;;;11.70;100.00;102295.03;5088987;28;20059;-47
2023/10/06 00:37:38;;;;;;;12.90;6.00;;;;;;;11.74;100.00;102287.81;5091345;28;20075;-44
2023/10/06 00:40:11;;;;;;;11.90;5.80;;;;;;;11.75;100.00;102289.53;5090716;28;20123;-43
2023/10/06 00:42:40;;;;;;;11.43;5.72;;;;;;;11.73;100.00;102289.63;5084756;28;20566;-44
2023/10/06 00:45:10;;;;;;;12.38;5.78;;;;;;;11.73;100.00;102286.97;5088502;28;20051;-43
2023/10/06 00:47:41;;;;;;;11.82;5.18;;;;;;;11.72;100.00;102289.69;5089684;28;20131;-46
2023/10/06 00:50:12;;;;;;;13.60;6.28;;;;;;;11.73;100.00;102284.34;5087045;28;20444;-44
2023/10/06 00:52:41;;;;;;;15.15;6.53;;;;;;;11.75;100.00;102285.13;5090676;28;20463;-45
2023/10/06 00:55:11;;;;;;;11.80;5.68;;;;;;;11.75;100.00;102290.41;5090421;28;20036;-46
2023/10/06 00:57:41;;;;;;;13.05;6.43;;;;;;;11.73;100.00;102279.06;5091450;28;20044;-47
2023/10/06 01:00:19;;;;;;;13.30;6.15;;;;;;;11.70;100.00;102281.00;5090437;28;20198;-46
2023/10/06 01:02:50;;;;;;;14.52;5.93;;;;;;;11.66;100.00;102278.50;5094685;28;20074;-46
2023/10/06 01:05:20;;;;;;;11.52;5.68;;;;;;;11.65;100.00;102276.78;5090990;28;20048;-46
2023/10/06 01:07:49;;;;;;;12.23;5.80;;;;;;;11.63;100.00;102281.28;5091536;28;20731;-46
2023/10/06 01:10:21;;;;;;;14.80;6.47;;;;;;;11.61;100.00;102280.50;5089587;28;20406;-45
2023/10/06 01:12:52;;;;;;;10.73;6.10;;;;;;;11.60;100.00;102281.44;5093170;28;20040;-45
2023/10/06 01:15:21;;;;;;;13.30;6.25;;;;;;;11.60;100.00;102278.81;5094656;28;20044;-46
2023/10/06 01:17:53;;;;;;;12.70;6.20;;;;;;;11.61;100.00;102287.56;5094130;28;20086;-45
2023/10/06 01:20:34;;;;;;;12.13;6.53;;;;;;;11.58;100.00;102285.06;5090354;28;20048;-46
2023/10/06 01:23:10;;;;;;;13.05;6.60;;;;;;;11.57;100.00;102276.28;5090677;28;20051;-45
2023/10/06 01:25:39;;;;;;;12.90;6.20;;;;;;;11.56;100.00;102271.97;5088657;28;20048;-45
2023/10/06 01:28:12;;;;;;;14.68;6.22;;;;;;;11.55;100.00;102266.75;5090209;28;20048;-45
2023/10/06 01:30:41;;;;;;;11.02;6.25;;;;;;;11.57;100.00;102267.53;5093175;28;20040;-47
2023/10/06 01:33:10;;;;;;;13.25;6.40;;;;;;;11.59;100.00;102261.28;5090748;28;20052;-45
2023/10/06 01:35:42;;;;;;;13.55;6.90;;;;;;;11.59;100.00;102257.78;5092594;28;20510;-45
2023/10/06 01:38:22;;;;;;;17.17;6.25;;;;;;;11.59;100.00;102248.09;5093814;28;20072;-46
2023/10/06 01:40:52;;;;;;;14.25;6.35;;;;;;;11.56;100.00;102250.91;5093666;28;20411;-44
2023/10/06 01:43:25;;;;;;;14.18;7.00;;;;;;;11.56;100.00;102239.47;5093916;28;20036;-46
2023/10/06 01:45:53;;;;;;;11.07;6.35;;;;;;;11.55;100.00;102237.75;5091942;28;20506;-45
2023/10/06 01:48:24;;;;;;;15.00;7.22;;;;;;;11.55;100.00;102241.28;5090462;28;20056;-48
2023/10/06 01:50:54;;;;;;;15.27;6.82;;;;;;;11.52;100.00;102232.66;5089787;28;20036;-45
2023/10/06 01:53:25;;;;;;;16.73;6.75;;;;;;;11.50;100.00;102235.34;5090220;28;20090;-45
2023/10/06 01:55:54;;;;;;;14.35;6.47;;;;;;;11.56;100.00;102239.47;5087566;28;20105;-46
2023/10/06 01:58:25;;;;;;;13.88;6.97;;;;;;;11.52;100.00;102233.53;5091107;28;20418;-44
2023/10/06 02:00:53;;;;;;;15.68;7.47;;;;;;;11.58;100.00;102227.94;5090878;28;20120;-45
2023/10/06 02:03:23;;;;;;;14.55;7.07;;;;;;;11.54;100.00;102228.19;5090096;28;20080;-45
2023/10/06 02:05:54;;;;;;;11.90;6.72;;;;;;;11.53;100.00;102234.38;5089748;28;20082;-45
2023/10/06 02:08:27;;;;;;;16.38;6.32;;;;;;;11.55;100.00;102243.91;5089322;28;20066;-45
2023/10/06 02:10:55;;;;;;;12.70;6.28;;;;;;;11.58;100.00;102246.41;5091498;28;20069;-44
2023/10/06 02:13:23;;;;;;;16.38;7.07;;;;;;;11.57;100.00;102244.69;5093343;28;20589;-46
2023/10/06 02:15:58;;;;;;;13.77;6.13;;;;;;;11.63;100.00;102244.41;5090079;28;20036;-46
2023/10/06 02:18:35;;;;;;;12.55;6.40;;;;;;;11.60;100.00;102247.19;5090605;28;20555;-44
2023/10/06 02:21:11;;;;;;;12.80;6.03;;;;;;;11.59;100.00;102253.38;5093411;28;20098;-43
2023/10/06 02:23:42;;;;;;;15.82;6.60;;;;;;;11.56;100.00;102252.66;5090809;28;21029;-45
2023/10/06 02:26:13;;;;;;;12.88;6.57;;;;;;;11.60;100.00;102254.22;5087570;28;20131;-47
2023/10/06 02:28:48;;;;;;;13.63;6.13;;;;;;;11.56;100.00;102250.03;5089211;28;20126;-47
2023/10/06 02:31:21;;;;;;;14.13;6.05;;;;;;;11.52;100.00;102257.22;5089413;28;20055;-46
2023/10/06 02:33:51;;;;;;;;;;;;;;;11.51;100.00;102255.53;5090272;28;20048;-44
2023/10/06 02:36:21;;;;;;;11.63;5.45;;;;;;;11.49;100.00;102252.09;5088870;28;20401;-50
2023/10/06 02:38:52;;;;;;;13.65;5.78;;;;;;;11.48;100.00;102248.59;5092009;28;20040;-44
2023/10/06 02:41:25;;;;;;;13.00;5.63;;;;;;;11.51;100.00;102250.25;5092051;28;20052;-45
2023/10/06 02:43:55;;;;;;;15.23;6.50;;;;;;;11.48;100.00;102242.50;5089474;28;20144;-47
2023/10/06 02:46:25;;;;;;;13.75;5.70;;;;;;;11.51;100.00;102231.81;5089216;28;20127;-45
2023/10/06 02:48:54;;;;;;;11.32;5.88;;;;;;;11.50;100.00;102219.56;5087817;28;20052;-45
2023/10/06 02:51:29;;;;;;;13.30;5.40;;;;;;;11.47;100.00;102217.91;5088677;28;20036;-46
2023/10/06 02:54:13;;;;;;;12.25;5.38;;;;;;;11.50;100.00;102214.28;5089759;28;20040;-46
2023/10/06 02:56:43;;;;;;;13.70;5.88;;;;;;;11.51;100.00;102218.63;5090949;28;20146;-44
2023/10/06 02:59:21;;;;;;;13.95;6.15;;;;;;;11.48;100.00;102218.78;5092142;28;20052;-44
2023/10/06 03:02:00;;;;;;;12.48;5.57;;;;;;;11.50;100.00;102211.66;5092233;28;20047;-44
2023/10/06 03:04:29;;;;;;;12.60;5.57;;;;;;;11.51;100.00;102213.38;5092302;28;20081;-48
2023/10/06 03:06:58;;;;;;;13.60;5.35;;;;;;;11.50;100.00;102219.56;5090993;28;20101;-45
2023/10/06 03:09:36;;;;;;;14.13;5.72;;;;;;;11.48;100.00;102217.00;5090035;28;20434;-46
2023/10/06 03:12:11;;;;;;;10.23;5.18;;;;;;;11.47;100.00;102211.81;5085659;28;20048;-46
2023/10/06 03:14:40;;;;;;;14.57;5.45;;;;;;;11.46;100.00;102212.72;5088770;28;20109;-46
2023/10/06 03:17:12;;;;;;;13.63;5.50;;;;;;;11.48;100.00;102209.09;5088696;28;20051;-46
2023/10/06 03:19:41;;;;;;;9.88;4.70;;;;;;;11.46;100.00;102208.28;5087884;28;20568;-44
2023/10/06 03:22:12;;;;;;;15.98;4.97;;;;;;;11.46;100.00;102215.34;5090213;28;20586;-46
2023/10/06 03:24:53;;;;;;;12.45;5.40;;;;;;;11.44;100.00;102218.06;5091880;28;20233;-46
2023/10/06 03:27:23;;;;;;;13.18;5.13;;;;;;;11.47;100.00;102210.00;5090493;28;20040;-45
2023/10/06 03:29:54;;;;;;;11.40;4.88;;;;;;;11.46;100.00;102204.81;5088018;28;20048;-46
2023/10/06 03:32:32;;;;;;;13.50;5.65;;;;;;;11.47;100.00;102206.53;5087359;28;20138;-46
2023/10/06 03:35:16;;;;;;;11.02;5.38;;;;;;;11.47;100.00;102209.16;5088263;28;20473;-46
2023/10/06 03:37:52;;;;;;;12.68;5.88;;;;;;;11.45;100.00;102203.09;5088751;28;20399;-47
2023/10/06 03:40:34;;;;;;;11.48;5.32;;;;;;;11.45;100.00;102206.59;5089121;28;20048;-46
2023/10/06 03:43:06;;;;;;;14.25;5.63;;;;;;;11.49;100.00;102188.84;5048089;28;20388;-47
2023/10/06 03:45:35;;;;;;;12.75;5.07;;;;;;;11.51;100.00;102181.75;5047930;28;20557;-48
2023/10/06 03:48:11;;;;;;;12.38;5.53;;;;;;;11.48;100.00;102184.53;5050753;28;20049;-45
2023/10/06 03:50:40;;;;;;;11.85;5.25;;;;;;;11.47;100.00;102186.31;5046636;28;20052;-46
2023/10/06 03:53:12;;;;;;;14.63;5.70;;;;;;;11.44;100.00;102186.47;5047804;28;20053;-45
2023/10/06 03:55:44;;;;;;;15.02;5.05;;;;;;;11.43;100.00;102191.81;5046480;28;20545;-45
2023/10/06 03:58:15;;;;;;;12.18;5.07;;;;;;;11.42;100.00;102190.09;5047583;28;20049;-48
2023/10/06 04:00:47;;;;;;;14.35;5.15;;;;;;;11.41;100.00;102191.88;5051213;28;20045;-46
2023/10/06 04:03:18;;;;;;;11.13;5.10;;;;;;;11.40;100.00;102190.16;5051152;28;20123;-47
2023/10/06 04:05:48;;;;;;;13.48;5.43;;;;;;;11.41;100.00;102180.47;5051336;28;20045;-47
2023/10/06 04:08:20;;;;;;;11.07;4.82;;;;;;;11.41;100.00;102169.94;5048710;28;20052;-47
2023/10/06 04:10:51;;;;;;;11.75;5.07;;;;;;;11.39;100.00;102188.44;5046465;28;20048;-47
2023/10/06 04:13:21;;;;;;;14.45;4.78;;;;;;;11.40;100.00;102191.91;5048400;28;20041;-49
2023/10/06 04:15:50;;;;;;;12.63;4.75;;;;;;;11.37;100.00;102198.22;5051083;28;20571;-46
2023/10/06 04:18:22;;;;;;;12.68;5.13;;;;;;;11.37;100.00;102194.72;5049113;28;20049;-44
2023/10/06 04:20:51;;;;;;;12.25;5.80;;;;;;;11.40;100.00;102190.16;5047725;28;20102;-45
2023/10/06 04:23:22;;;;;;;13.10;5.38;;;;;;;11.40;100.00;102187.53;5047298;28;20056;-47
2023/10/06 04:25:56;;;;;;;11.48;5.65;;;;;;;11.43;100.00;102170.72;5044517;28;20152;-45
2023/10/06 04:28:27;;;;;;;13.02;5.10;;;;;;;11.41;100.00;102177.84;5045738;28;20053;-46
2023/10/06 04:30:58;;;;;;;14.13;6.40;;;;;;;11.41;100.00;102177.84;5052267;28;20048;-45
2023/10/06 04:33:28;;;;;;;12.23;5.40;;;;;;;11.40;100.00;102181.38;5053703;28;20122;-47
2023/10/06 04:35:59;;;;;;;13.32;5.95;;;;;;;11.39;100.00;102179.69;5054789;28;20041;-47
2023/10/06 04:38:29;;;;;;;14.15;5.95;;;;;;;11.42;100.00;102176.91;5053799;28;20049;-47
2023/10/06 04:40:59;;;;;;;14.70;5.40;;;;;;;11.41;100.00;102167.28;5058779;28;20052;-47
2023/10/06 04:43:28;;;;;;;12.25;5.18;;;;;;;11.42;100.00;102171.66;5091407;28;20047;-49
2023/10/06 04:45:56;;;;;;;12.88;5.00;;;;;;;11.44;100.00;102170.66;5091805;28;20093;-45
2023/10/06 04:48:24;;;;;;;12.00;5.30;;;;;;;11.39;100.00;102169.16;5095034;28;20056;-45
2023/10/06 04:50:55;;;;;;;18.02;6.40;;;;;;;11.40;100.00;102168.22;5094796;28;20078;-44
2023/10/06 04:53:24;;;;;;;12.60;5.32;;;;;;;11.39;100.00;102164.75;5094610;28;20123;-46
2023/10/06 04:55:54;;;;;;;15.70;5.20;;;;;;;11.39;100.00;102163.91;5094456;28;20044;-46
2023/10/06 04:58:24;;;;;;;12.15;4.90;;;;;;;11.39;100.00;102166.53;5094709;28;20052;-44
2023/10/06 05:00:53;;;;;;;11.68;5.20;;;;;;;11.37;100.00;102169.25;5094933;28;20480;-48
2023/10/06 05:03:21;;;;;;;11.65;5.30;;;;;;;11.32;100.00;102165.97;5094748;28;20036;-48
2023/10/06 05:05:55;;;;;;;16.38;5.28;;;;;;;11.29;100.00;102174.03;5092610;28;20047;-45
2023/10/06 05:08:24;;;;;;;13.60;5.40;;;;;;;11.26;100.00;102164.47;5090774;28;20040;-46
2023/10/06 05:10:55;;;;;;;13.30;5.00;;;;;;;11.28;100.00;102174.94;5089365;28;20051;-47
2023/10/06 05:13:26;;;;;;;15.25;5.47;;;;;;;11.25;100.00;102186.47;5092408;28;20052;-48
2023/10/06 05:15:55;;;;;;;11.40;5.45;;;;;;;11.22;100.00;102191.00;5090585;28;20117;-46
2023/10/06 05:18:24;;;;;;;11.70;5.78;;;;;;;11.20;100.00;102188.44;5092034;28;20078;-44
2023/10/06 05:20:53;;;;;;;12.02;6.15;;;;;;;11.20;100.00;102184.97;5094417;28;20051;-47
2023/10/06 05:23:21;;;;;;;18.67;6.47;;;;;;;11.23;100.00;102177.78;5090974;28;20036;-47
2023/10/06 05:25:49;;;;;;;14.00;5.63;;;;;;;11.21;100.00;102176.13;5089523;28;20060;-45
2023/10/06 05:28:17;;;;;;;17.35;5.60;;;;;;;11.22;100.00;102176.09;5090107;28;20131;-49
2023/10/06 05:30:47;;;;;;;10.65;5.40;;;;;;;11.26;100.00;102172.38;5092092;28;20196;-48
2023/10/06 05:33:16;;;;;;;16.25;5.90;;;;;;;11.24;100.00;102171.59;5091810;28;20044;-46
2023/10/06 05:35:45;;;;;;;14.38;6.38;;;;;;;11.23;100.00;102167.22;5090597;28;20491;-47
2023/10/06 05:38:16;;;;;;;10.80;5.50;;;;;;;11.28;100.00;102154.72;5090242;28;20044;-46
2023/10/06 05:40:46;;;;;;;10.38;5.13;;;;;;;11.27;100.00;102153.00;5093112;28;20074;-45
2023/10/06 05:43:16;;;;;;;17.88;6.05;;;;;;;11.24;100.00;102152.31;5089231;28;20044;-45
2023/10/06 05:45:44;;;;;;;13.63;5.80;;;;;;;11.28;100.00;102146.81;5092263;28;20043;-49
2023/10/06 05:48:16;;;;;;;15.40;7.28;;;;;;;11.32;100.00;102148.38;5091054;28;20044;-48
2023/10/06 05:50:45;;;;;;;14.88;7.95;;;;;;;11.32;100.00;102147.53;5090186;28;20101;-44
2023/10/06 05:53:19;;;;;;;19.65;9.40;;;;;;;11.38;100.00;102159.56;5088040;28;20052;-45
2023/10/06 05:55:49;;;;;;;17.25;9.70;;;;;;;11.40;100.00;102158.56;5091261;28;20048;-47
2023/10/06 05:58:19;;;;;;;16.48;8.85;;;;;;;11.36;100.00;102156.13;5091338;28;20082;-44
2023/10/06 06:00:52;;;;;;;15.93;8.90;;;;;;;11.35;100.00;102152.66;5090115;28;20047;-45
2023/10/06 06:03:25;;;;;;;13.60;7.15;;;;;;;11.40;100.00;102166.47;5090421;28;20043;-45
2023/10/06 06:05:57;;;;;;;12.30;6.85;;;;;;;11.39;100.00;102167.38;5090018;28;20130;-45
2023/10/06 06:08:25;;;;;;;18.42;6.55;;;;;;;11.44;100.00;102169.81;5089616;28;20078;-47
2023/10/06 06:10:54;;;;;;;10.82;5.32;;;;;;;11.46;100.00;102163.50;5087752;28;20044;-46
2023/10/06 06:13:22;;;;;;;12.90;5.85;;;;;;;11.47;100.00;102167.03;5092354;28;20752;-47
2023/10/06 06:15:50;;;;;;;12.73;5.32;;;;;;;11.47;100.00;102169.66;5089558;28;20047;-46
2023/10/06 06:18:18;;;;;;;15.25;5.13;;;;;;;11.47;100.00;102170.50;5089869;28;20055;-47
2023/10/06 06:20:50;;;;;;;15.73;4.50;;;;;;;11.54;100.00;102172.84;5089389;28;20479;-44
2023/10/06 06:23:20;;;;;;;12.55;4.65;;;;;;;11.55;100.00;102174.53;5089062;28;20082;-47
2023/10/06 06:25:48;;;;;;;13.15;4.75;;;;;;;11.59;100.00;102176.97;5088564;28;20059;-45
2023/10/06 06:28:16;;;;;;;13.35;4.85;;;;;;;11.58;100.00;102172.63;5088951;28;20072;-46
2023/10/06 06:30:47;;;;;;;12.02;4.47;;;;;;;11.62;100.00;102168.91;5089567;28;20418;-48
2023/10/06 06:33:17;;;;;;;13.20;5.18;;;;;;;11.67;100.00;102176.59;5090191;28;20390;-47
2023/10/06 06:35:47;;;;;;;10.07;4.53;;;;;;;11.72;100.00;102179.00;5088658;28;20555;-46
2023/10/06 06:38:18;;;;;;;12.15;4.47;;;;;;;11.79;100.00;102176.00;5089018;28;20048;-48
2023/10/06 06:40:48;;;;;;;11.55;4.65;;;;;;;11.79;100.00;102172.50;5088207;28;20132;-46
2023/10/06 06:43:19;;;;;;;10.98;4.78;;;;;;;11.86;100.00;102170.41;5088236;28;20101;-45
2023/10/06 06:45:53;;;;;;;12.25;4.10;;;;;;;11.88;100.00;102168.56;5089131;28;20538;-48
2023/10/06 06:48:22;;;;;;;9.73;4.35;;;;;;;11.92;100.00;102162.22;5088852;28;20052;-45
2023/10/06 06:50:50;;;;;;;15.18;4.50;;;;;;;11.94;100.00;102177.06;5088703;28;20047;-44
2023/10/06 06:53:19;;;;;;;10.98;4.75;;;;;;;11.95;100.00;102170.84;5088060;28;20048;-45
2023/10/06 06:55:47;;;;;;;13.60;4.32;;;;;;;12.00;100.00;102168.81;5087820;28;20066;-45
2023/10/06 06:58:17;;;;;;;11.75;5.20;;;;;;;12.03;100.00;102170.47;5088308;28;20055;-47
2023/10/06 07:00:47;;;;;;;12.65;4.70;;;;;;;12.09;100.00;102175.44;5088629;28;20044;-47
2023/10/06 07:03:16;;;;;;;9.90;4.40;;;;;;;12.16;100.00;102178.59;5090409;28;20052;-44
2023/10/06 07:05:44;;;;;;;9.82;4.60;;;;;;;12.16;100.00;102176.81;5092269;28;20036;-45
2023/10/06 07:08:13;;;;;;;9.38;4.53;;;;;;;12.18;100.00;102182.03;5091573;28;20465;-47
2023/10/06 07:10:46;;;;;;;10.30;4.18;;;;;;;12.21;100.00;102181.00;5091871;28;20055;-45
2023/10/06 07:13:15;;;;;;;12.45;4.40;;;;;;;12.23;100.00;102182.66;5092095;28;20074;-49
2023/10/06 07:15:44;;;;;;;10.90;4.60;;;;;;;12.24;100.00;102176.41;5089740;28;20051;-45
2023/10/06 07:18:14;;;;;;;10.02;4.28;;;;;;;12.28;100.00;102183.25;5088301;28;20414;-46
2023/10/06 07:20:44;;;;;;;13.02;5.03;;;;;;;12.31;100.00;102182.22;5088043;28;20048;-45
2023/10/06 07:23:12;;;;;;;13.00;4.65;;;;;;;12.31;100.00;102185.75;5087455;28;20063;-47
2023/10/06 07:25:42;;;;;;;11.77;4.68;;;;;;;12.30;100.00;102180.56;5086974;28;20044;-46
2023/10/06 07:28:12;;;;;;;11.32;4.35;;;;;;;12.36;100.00;102187.28;5087552;28;20127;-44
2023/10/06 07:30:41;;;;;;;12.75;4.57;;;;;;;12.44;100.00;102185.94;5091293;28;20105;-45
2023/10/06 07:33:09;;;;;;;9.55;4.55;;;;;;;12.48;100.00;102184.84;5091878;28;20114;-47
2023/10/06 07:35:45;;;;;;;12.68;4.40;;;;;;;12.59;100.00;102201.94;5090175;28;20042;-45
2023/10/06 07:38:13;;;;;;;12.80;4.65;;;;;;;12.75;100.00;102201.97;5087723;28;20469;-44
2023/10/06 07:40:43;;;;;;;13.68;5.38;;;;;;;12.87;100.00;102201.34;5090345;28;20474;-45
2023/10/06 07:43:12;;;;;;;9.80;4.30;;;;;;;12.95;100.00;102206.19;5091647;28;20036;-46
2023/10/06 07:45:41;;;;;;;12.73;4.40;;;;;;;13.10;100.00;102207.16;5091828;28;20077;-44
2023/10/06 07:48:09;;;;;;;12.20;4.63;;;;;;;13.29;100.00;102207.88;5091472;28;20105;-45
2023/10/06 07:50:38;;;;;;;13.30;4.88;;;;;;;13.50;100.00;102216.41;5091382;28;20043;-48
2023/10/06 07:53:06;;;;;;;11.90;4.70;;;;;;;13.49;100.00;102216.50;5089131;28;20054;-44
2023/10/06 07:55:36;;;;;;;9.38;4.60;;;;;;;13.68;100.00;102211.88;5086301;28;20040;-45
2023/10/06 07:58:08;;;;;;;10.00;4.00;;;;;;;13.94;100.00;102214.81;5087417;28;20048;-44
2023/10/06 08:00:38;;;;;;;9.25;4.22;;;;;;;14.15;100.00;102207.44;5088596;28;20039;-45
2023/10/06 08:03:07;;;;;;;13.00;4.30;;;;;;;14.33;100.00;102210.81;5091587;28;20044;-44
2023/10/06 08:05:38;;;;;;;12.93;4.35;;;;;;;14.66;100.00;102208.91;5086833;28;20063;-45
2023/10/06 08:08:07;;;;;;;10.00;3.90;;;;;;;14.74;100.00;102203.97;5087405;28;20059;-44
2023/10/06 08:10:36;;;;;;;9.80;4.43;;;;;;;14.79;100.00;102212.50;5085793;28;20130;-46
2023/10/06 08:13:07;;;;;;;11.48;4.00;;;;;;;14.91;100.00;102204.75;5087388;28;20052;-45
2023/10/06 08:15:40;;;;;;;13.40;4.30;;;;;;;15.01;100.00;102212.03;5086056;28;20052;-45
2023/10/06 08:18:08;;;;;;;;;;;;;;;15.18;100.00;102203.00;5088194;28;20558;-45
2023/10/06 08:20:38;;;;;;;10.75;4.20;;;;;;;15.30;100.00;102206.69;5087403;28;20351;-45
2023/10/06 08:23:07;;;;;;;9.98;4.13;;;;;;;15.42;100.00;102204.19;5087622;28;20048;-44
2023/10/06 08:25:35;;;;;;;11.75;4.43;;;;;;;15.47;100.00;102205.59;5086488;28;20044;-42
2023/10/06 08:28:26;;;;;;;11.65;4.50;;;;;;;15.60;100.00;102196.84;5089411;28;20048;-46
2023/10/06 08:30:54;;;;;;;14.38;3.97;;;;;;;15.66;100.00;102199.94;5091318;28;20044;-46
2023/10/06 08:33:27;;;;;;;12.15;3.85;;;;;;;15.74;100.00;102193.31;5088128;28;20360;-44
2023/10/06 08:35:57;;;;;;;11.50;4.43;;;;;;;15.88;100.00;102196.78;5087509;28;20044;-45
2023/10/06 08:38:25;;;;;;;8.88;3.70;;;;;;;15.99;100.00;102193.41;5087669;28;20048;-50
2023/10/06 08:40:58;;;;;;;11.65;3.85;;;;;;;16.14;100.00;102190.66;5085406;28;20058;-47
2023/10/06 08:43:32;;;;;;;9.15;3.92;;;;;;;16.24;100.00;102194.41;5086436;28;20044;-47
2023/10/06 08:46:02;;;;;;;11.75;4.22;;;;;;;16.34;100.00;102191.97;5090917;28;20040;-47
2023/10/06 08:48:32;;;;;;;11.27;4.20;;;;;;;16.31;100.00;102195.69;5089562;28;20058;-47
2023/10/06 08:51:07;;;;;;;11.18;3.88;;;;;;;16.29;100.00;102187.00;5086714;28;20047;-46
2023/10/06 08:53:38;;;;;;;13.55;4.47;;;;;;;16.34;100.00;102187.50;5089519;28;20063;-50
2023/10/06 08:56:07;;;;;;;11.13;4.10;;;;;;;16.48;100.00;102183.06;5091050;28;20133;-47
2023/10/06 08:58:36;;;;;;;9.57;3.67;;;;;;;16.57;100.00;102185.06;5086834;28;20139;-50
2023/10/06 09:01:06;;;;;;;10.55;3.78;;;;;;;16.73;100.00;102193.66;5086546;28;20056;-46
2023/10/06 09:03:38;;;;;;;8.52;3.75;;;;;;;16.93;100.00;102191.44;5090978;28;20048;-47
2023/10/06 09:06:08;;;;;;;13.68;3.75;;;;;;;17.06;100.00;102196.75;5088067;28;20101;-46
2023/10/06 09:08:40;;;;;;;10.83;3.87;;;;;;;17.16;100.00;102199.59;5087620;28;20132;-49
2023/10/06 09:11:09;;;;;;;9.75;4.03;;;;;;;17.04;100.00;102188.00;5089568;28;20060;-46
2023/10/06 09:13:40;;;;;;;11.10;3.90;;;;;;;17.17;100.00;102188.00;5090997;28;20040;-47
2023/10/06 09:16:11;;;;;;;11.10;3.90;;;;;;;17.32;100.00;102183.38;5091046;28;20098;-48
2023/10/06 09:18:40;;;;;;;11.35;4.07;;;;;;;17.37;100.00;102175.94;5094441;28;20071;-47
2023/10/06 09:21:15;;;;;;;10.88;4.15;;;;;;;17.45;100.00;102180.66;5091244;28;20097;-48
2023/10/06 09:23:44;;;;;;;11.05;4.07;;;;;;;17.47;100.00;102181.41;5091599;28;20470;-49
2023/10/06 09:26:15;;;;;;;10.52;3.83;;;;;;;17.58;100.00;102192.09;5094461;28;20112;-48
2023/10/06 09:28:52;;;;;;;13.20;4.15;;;;;;;17.67;100.00;102180.78;5094291;28;20515;-49
2023/10/06 09:31:35;;;;;;;8.52;3.70;;;;;;;17.78;100.00;102181.78;5094241;28;20040;-48
2023/10/06 09:34:07;;;;;;;11.48;3.95;;;;;;;17.73;100.00;102182.97;5094016;28;20642;-48
2023/10/06 09:36:37;;;;;;;9.20;3.53;;;;;;;17.79;100.00;102191.47;5094074;28;20044;-48
2023/10/06 09:39:17;;;;;;;12.90;3.80;;;;;;;17.87;100.00;102189.94;5093827;28;20131;-49
2023/10/06 09:41:48;;;;;;;16.58;4.35;;;;;;;17.85;100.00;102185.69;5093759;28;20566;-50
2023/10/06 09:44:19;;;;;;;10.48;3.80;;;;;;;17.92;100.00;102176.31;5093809;28;20052;-49
2023/10/06 09:46:57;;;;;;;12.45;4.10;;;;;;;17.99;100.00;102174.03;5092966;28;20411;-48
2023/10/06 09:49:27;;;;;;;10.25;3.58;;;;;;;18.07;100.00;102182.28;5090163;28;20855;-51
2023/10/06 09:52:01;;;;;;;11.52;3.60;;;;;;;18.01;100.00;102183.59;5092151;28;20582;-47
2023/10/06 09:54:31;;;;;;;10.50;3.78;;;;;;;18.02;100.00;102189.75;5093505;28;20590;-46
2023/10/06 09:57:01;;;;;;;10.48;4.00;;;;;;;18.10;100.00;102190.03;5093716;28;20122;-50
2023/10/06 09:59:33;;;;;;;12.70;4.40;;;;;;;18.15;100.00;102187.03;5093776;28;20036;-48
2023/10/06 10:02:12;;;;;;;11.68;4.32;;;;;;;18.21;100.00;102173.25;5093578;28;20048;-48
2023/10/06 10:04:41;;;;;;;10.15;3.42;;;;;;;18.39;100.00;102179.81;5092300;28;20067;-50
2023/10/06 10:07:10;;;;;;;9.68;3.00;;;;;;;18.51;100.00;102177.16;5093545;28;20052;-48
2023/10/06 10:09:43;;;;;;;8.20;3.38;;;;;;;18.67;100.00;102185.66;5093459;28;20487;-50
2023/10/06 10:12:34;;;;;;;7.88;3.25;;;;;;;18.93;100.00;102172.09;5093392;28;20054;-50
2023/10/06 10:15:22;;;;;;;8.48;3.53;;;;;;;19.04;100.00;102173.91;5093280;28;20040;-51
2023/10/06 10:18:00;;;;;;;9.90;3.40;;;;;;;19.04;100.00;102174.75;5093161;28;20060;-48
2023/10/06 10:20:28;;;;;;;11.88;4.15;;;;;;;19.13;100.00;102177.66;5092602;28;20036;-49
2023/10/06 10:22:57;;;;;;;11.18;3.25;;;;;;;19.24;100.00;102174.97;5092678;28;20534;-47
2023/10/06 10:25:25;;;;;;;8.68;3.10;;;;;;;19.47;100.00;102170.44;5093482;28;20570;-46
2023/10/06 10:28:14;;;;;;;10.38;3.78;;;;;;;19.67;100.00;102160.75;5092538;28;20498;-45
2023/10/06 10:30:53;;;;;;;7.43;3.47;;;;;;;19.98;100.00;102163.56;5091853;28;20044;-48
2023/10/06 10:33:22;;;;;;;9.32;3.55;;;;;;;20.22;100.00;102162.44;5089796;28;20130;-47
2023/10/06 10:36:22;;;;;;;9.88;3.30;;;;;;;20.49;100.00;102153.03;5091612;28;20109;-47
2023/10/06 10:39:01;;;;;;;7.65;3.08;;;;;;;20.58;100.00;102154.91;5092889;28;20043;-47
2023/10/06 10:41:35;;;;;;;8.48;3.05;;;;;;;20.80;100.00;102153.88;5092821;28;20052;-49
2023/10/06 10:44:05;;;;;;;10.10;3.83;;;;;;;20.99;100.00;102152.25;5090279;28;20047;-46
2023/10/06 10:46:56;;;;;;;14.68;3.70;;;;;;;21.47;100.00;102156.00;5089284;28;20051;-49
2023/10/06 10:49:25;;;;;;;8.25;2.72;;;;;;;21.63;100.00;102150.13;5089222;28;20055;-48
2023/10/06 10:51:56;;;;;;;13.85;3.78;;;;;;;21.57;100.00;102138.16;5090158;28;20093;-48
2023/10/06 10:54:28;;;;;;;12.77;3.63;;;;;;;21.43;100.00;102120.63;5090241;28;20048;-47
2023/10/06 10:57:02;;;;;;;13.52;3.75;;;;;;;21.22;100.00;102131.47;5087258;28;20131;-48
2023/10/06 11:00:20;;;;;;;10.13;3.65;;;;;;;20.99;100.00;102118.31;5087613;28;20056;-48
2023/10/06 11:03:05;;;;;;;11.13;3.38;;;;;;;20.68;100.00;102125.53;5089368;28;20075;-48
2023/10/06 11:05:37;;;;;;;10.70;2.92;;;;;;;20.70;100.00;102123.63;5088904;28;20738;-46
2023/10/06 11:08:05;;;;;;;7.20;2.72;;;;;;;20.38;100.00;102132.59;5089367;28;20494;-48
2023/10/06 11:10:34;;;;;;;10.90;2.92;;;;;;;20.43;100.00;102128.53;5092377;28;20436;-49
2023/10/06 11:13:18;;;;;;;8.13;3.05;;;;;;;20.44;100.00;102140.91;5092388;28;20494;-47
2023/10/06 11:15:48;;;;;;;8.38;3.08;;;;;;;20.32;100.00;102133.13;5090909;28;20055;-48
2023/10/06 11:18:20;;;;;;;12.18;3.30;;;;;;;20.20;100.00;102137.69;5088853;28;20059;-48
2023/10/06 11:20:49;;;;;;;9.93;2.95;;;;;;;20.27;100.00;102126.34;5089432;28;20059;-46
2023/10/06 11:23:18;;;;;;;11.05;3.05;;;;;;;20.22;100.00;102125.91;5089769;28;20048;-48
2023/10/06 11:25:50;;;;;;;14.25;2.90;;;;;;;20.19;100.00;102123.50;5087548;28;20554;-46
2023/10/06 11:28:19;;;;;;;9.73;3.00;;;;;;;20.35;100.00;102117.66;5087859;28;20127;-48
2023/10/06 11:30:48;;;;;;;10.18;3.05;;;;;;;20.51;100.00;102127.03;5088576;28;20118;-47
2023/10/06 11:33:20;;;;;;;11.40;3.03;;;;;;;20.48;100.00;102124.59;5088433;28;20070;-49